Rochester, Pennsylvania
Current Conditions -  °F | °C
As of 2:51 PM on Monday 22 Dec 2014 (Local Time) from KPIT Reporting Station
Broken Clouds Broken Clouds  
Wind Chill: 41°   Ceiling: 25000
Heat Index: 45°   Visibility: 9mi
Dew Point: 31°   Wind: 8mph
Humidity: 58%   Direction: 110°ESE
Pressure: 29.99"   Gusts: NA
Location:  40.7°N, 80.29°W
Report Text: KPIT 221951Z 11007KT 9SM BKN250 07/M01 A2999 RMK AO2 SLP174 T00721006
Loading
Personal Weather Stations






























Interactive Weather Map New forecast layout! Learn more

10-Day Weather Forecast

Advertisements
Track Severe Weather on mobile